createdAt,value
2019-02-15T00:00:45.962Z,64.87
2019-02-15T00:01:53.565Z,60.67
2019-02-15T00:03:00.109Z,57.73
2019-02-15T00:04:06.186Z,56.35
2019-02-15T00:05:12.426Z,71.85
2019-02-15T00:06:18.599Z,66.75
2019-02-15T00:07:24.724Z,59.75
2019-02-15T00:08:30.639Z,69.82
2019-02-15T00:09:36.722Z,71.37
2019-02-15T00:10:43.284Z,63.38
2019-02-15T00:11:49.327Z,65.83
2019-02-15T00:12:55.394Z,72.32
2019-02-15T00:14:01.434Z,65.97
2019-02-15T00:15:07.525Z,66.42
2019-02-15T00:16:13.735Z,68.72
2019-02-15T00:17:37.760Z,71.62
2019-02-15T00:18:59.469Z,71.22
2019-02-15T00:20:08.144Z,73.42
2019-02-15T00:21:17.307Z,69.10
2019-02-15T00:22:23.776Z,74.15
2019-02-15T00:23:30.525Z,72.97
2019-02-15T00:24:36.747Z,69.92
2019-02-15T00:25:42.967Z,67.78
2019-02-15T00:26:49.218Z,71.82
2019-02-15T00:27:55.274Z,68.25
2019-02-15T00:29:01.530Z,70.65
2019-02-15T00:30:09.679Z,67.90
2019-02-15T00:31:18.420Z,68.50
2019-02-15T00:32:24.978Z,73.35
2019-02-15T00:33:31.058Z,69.30
2019-02-15T00:34:37.150Z,62.58
2019-02-15T00:35:43.248Z,62.85
2019-02-15T00:36:49.435Z,62.08
2019-02-15T00:37:55.608Z,66.65
2019-02-15T00:39:01.433Z,67.32
2019-02-15T00:40:09.117Z,58.70
2019-02-15T00:41:15.189Z,61.25
2019-02-15T00:42:21.209Z,66.42
2019-02-15T00:43:27.462Z,63.23
2019-02-15T00:44:34.712Z,64.30
2019-02-15T00:45:49.825Z,63.70
2019-02-15T00:47:23.925Z,62.40
2019-02-15T00:48:30.246Z,60.67
2019-02-15T00:50:10.764Z,61.95
2019-02-15T00:51:35.630Z,59.67
2019-02-15T00:53:03.517Z,63.90
2019-02-15T00:54:27.479Z,62.25
2019-02-15T00:55:55.546Z,65.87
2019-02-15T00:57:35.797Z,57.20
2019-02-15T00:59:01.211Z,61.10
2019-02-15T01:00:42.985Z,63.83
2019-02-15T01:01:58.865Z,60.43
2019-02-15T01:03:24.368Z,63.42
2019-02-15T01:04:58.269Z,59.85
2019-02-15T01:06:18.253Z,64.92
2019-02-15T01:07:50.608Z,60.48
2019-02-15T01:09:18.572Z,66.17
2019-02-15T01:10:46.432Z,70.97
2019-02-15T01:12:00.851Z,63.68
2019-02-15T01:13:18.920Z,66.25
2019-02-15T01:14:25.361Z,64.53
2019-02-15T01:15:31.568Z,70.55
2019-02-15T01:16:37.416Z,64.58
2019-02-15T01:17:43.508Z,66.47
2019-02-15T01:18:49.683Z,64.03
2019-02-15T01:19:55.895Z,69.05
2019-02-15T01:21:02.178Z,64.22
2019-02-15T01:22:08.488Z,68.17
2019-02-15T01:23:14.706Z,72.42
2019-02-15T01:24:20.758Z,71.50
2019-02-15T01:25:28.616Z,65.87
2019-02-15T01:27:00.157Z,67.40
2019-02-15T01:28:11.636Z,68.50
2019-02-15T01:29:33.235Z,62.58
2019-02-15T01:30:57.317Z,65.00
2019-02-15T01:32:21.284Z,67.05
2019-02-15T01:33:46.483Z,64.95
2019-02-15T01:35:10.452Z,65.20
2019-02-15T01:36:26.229Z,67.42
2019-02-15T01:37:38.535Z,66.57
2019-02-15T01:39:02.606Z,73.70
2019-02-15T01:40:27.688Z,75.17
2019-02-15T01:42:06.068Z,67.78
2019-02-15T01:43:40.335Z,66.55
2019-02-15T01:44:57.109Z,65.15
2019-02-15T01:46:19.438Z,71.02
2019-02-15T01:47:32.447Z,66.20
2019-02-15T01:48:38.728Z,66.40
2019-02-15T01:49:44.882Z,67.27
2019-02-15T01:50:51.019Z,74.37
2019-02-15T01:51:57.149Z,77.30
2019-02-15T01:53:03.605Z,76.50
2019-02-15T01:54:10.206Z,72.87
2019-02-15T01:55:16.124Z,71.95
2019-02-15T01:56:22.612Z,72.35
2019-02-15T01:57:28.765Z,81.65
2019-02-15T01:58:34.859Z,66.90
2019-02-15T01:59:41.052Z,65.92
2019-02-15T02:00:47.306Z,71.62
2019-02-15T02:01:53.441Z,79.72
2019-02-15T02:02:59.614Z,69.32
2019-02-15T02:04:06.826Z,74.87
2019-02-15T02:05:13.219Z,81.42
2019-02-15T02:06:19.391Z,74.50
2019-02-15T02:07:25.560Z,81.32
2019-02-15T02:08:33.177Z,72.80
2019-02-15T02:09:39.315Z,75.17
2019-02-15T02:10:45.520Z,77.55
2019-02-15T02:11:51.682Z,67.50
2019-02-15T02:12:57.829Z,73.28
2019-02-15T02:14:04.978Z,72.95
2019-02-15T02:15:11.875Z,81.28
2019-02-15T02:16:18.008Z,73.70
2019-02-15T02:17:24.069Z,78.57
2019-02-15T02:18:30.316Z,74.80
2019-02-15T02:19:36.602Z,71.62
2019-02-15T02:20:42.694Z,72.62
2019-02-15T02:21:48.899Z,75.37
2019-02-15T02:22:55.124Z,71.07
2019-02-15T02:24:01.392Z,73.50
2019-02-15T02:25:07.873Z,70.17
2019-02-15T02:26:14.071Z,70.42
2019-02-15T02:27:20.238Z,67.87
2019-02-15T02:28:26.505Z,69.90
2019-02-15T02:29:32.734Z,66.20
2019-02-15T02:30:39.286Z,71.62
2019-02-15T02:31:45.619Z,82.82
2019-02-15T02:32:51.808Z,64.10
2019-02-15T02:33:57.849Z,69.42
2019-02-15T02:35:04.231Z,68.20
2019-02-15T02:36:10.325Z,68.75
2019-02-15T02:37:16.419Z,67.17
2019-02-15T02:38:22.491Z,68.72
2019-02-15T02:39:29.696Z,64.50
2019-02-15T02:40:35.993Z,65.15
2019-02-15T02:41:42.408Z,66.90
2019-02-15T02:42:48.579Z,71.77
2019-02-15T02:43:59.715Z,68.33
2019-02-15T02:45:02.758Z,71.47
2019-02-15T02:46:09.003Z,62.23
2019-02-15T02:47:16.267Z,67.00
2019-02-15T02:48:22.564Z,65.65
2019-02-15T02:49:28.800Z,67.37
2019-02-15T02:50:35.137Z,64.65
2019-02-15T02:51:41.476Z,67.05
2019-02-15T02:52:47.674Z,67.20
2019-02-15T02:53:53.918Z,66.92
2019-02-15T02:55:00.034Z,67.75
2019-02-15T02:56:06.240Z,70.35
2019-02-15T02:57:12.457Z,75.87
2019-02-15T02:58:18.386Z,69.67
2019-02-15T02:59:24.504Z,68.65
2019-02-15T03:00:33.506Z,69.62
2019-02-15T03:01:38.273Z,69.42
2019-02-15T03:02:44.462Z,73.42
2019-02-15T03:03:50.485Z,68.60
2019-02-15T03:04:56.562Z,63.87
2019-02-15T03:06:02.601Z,69.20
2019-02-15T03:07:08.643Z,68.87
2019-02-15T03:08:14.908Z,68.02
2019-02-15T03:09:21.146Z,66.92
2019-02-15T03:10:27.367Z,66.15
2019-02-15T03:11:33.636Z,64.07
2019-02-15T03:12:39.812Z,67.70
2019-02-15T03:13:45.978Z,69.05
2019-02-15T03:14:52.077Z,66.10
2019-02-15T03:15:58.225Z,74.35
2019-02-15T03:17:05.427Z,67.17
2019-02-15T03:18:11.656Z,75.30
2019-02-15T03:19:17.906Z,67.58
2019-02-15T03:20:31.348Z,71.75
2019-02-15T03:21:31.989Z,71.05
2019-02-15T03:22:38.068Z,62.10
2019-02-15T03:23:43.776Z,75.00
2019-02-15T03:24:50.104Z,72.97
2019-02-15T03:25:56.451Z,66.12
2019-02-15T03:27:02.637Z,68.17
2019-02-15T03:28:08.757Z,60.60
2019-02-15T03:29:15.106Z,72.47
2019-02-15T03:30:21.380Z,68.60
2019-02-15T03:31:27.613Z,69.62
2019-02-15T03:32:34.088Z,70.97
2019-02-15T03:33:40.236Z,69.95
2019-02-15T03:34:46.483Z,70.00
2019-02-15T03:35:55.955Z,75.62
2019-02-15T03:37:20.564Z,64.05
2019-02-15T03:38:33.290Z,72.70
2019-02-15T03:39:42.869Z,61.88
2019-02-15T03:40:56.562Z,65.52
2019-02-15T03:42:03.125Z,69.97
2019-02-15T03:43:09.366Z,79.10
2019-02-15T03:44:22.293Z,71.28
2019-02-15T03:45:23.247Z,75.75
2019-02-15T03:46:29.571Z,68.55
2019-02-15T03:47:35.707Z,65.62
2019-02-15T03:48:41.832Z,65.12
2019-02-15T03:49:48.038Z,73.67
2019-02-15T03:50:55.282Z,70.17
2019-02-15T03:52:01.402Z,76.07
2019-02-15T03:53:07.510Z,72.22
2019-02-15T03:54:13.578Z,71.20
2019-02-15T03:55:19.814Z,73.15
2019-02-15T03:56:26.136Z,69.35
2019-02-15T03:57:32.235Z,77.03
2019-02-15T03:58:38.275Z,69.27
2019-02-15T03:59:44.632Z,72.62
2019-02-15T04:00:50.894Z,70.50
2019-02-15T04:01:57.016Z,77.42
2019-02-15T04:03:03.301Z,68.00
2019-02-15T04:04:09.706Z,66.72
2019-02-15T04:05:16.666Z,68.28
2019-02-15T04:06:22.815Z,71.20
2019-02-15T04:07:29.085Z,66.28
2019-02-15T04:08:35.157Z,67.72
2019-02-15T04:09:41.212Z,72.05
2019-02-15T04:10:47.272Z,68.47
2019-02-15T04:11:53.349Z,70.95
2019-02-15T04:12:59.489Z,69.97
2019-02-15T04:14:05.526Z,78.17
2019-02-15T04:15:11.678Z,73.97
2019-02-15T04:16:17.970Z,76.57
2019-02-15T04:17:24.084Z,76.55
2019-02-15T04:18:30.410Z,71.05
2019-02-15T04:19:36.692Z,74.58
2019-02-15T04:20:42.609Z,66.47
2019-02-15T04:21:48.883Z,79.12
2019-02-15T04:22:55.128Z,74.27
2019-02-15T04:24:01.359Z,70.35
2019-02-15T04:25:07.637Z,69.22
2019-02-15T04:26:14.094Z,80.10
2019-02-15T04:27:20.252Z,76.17
2019-02-15T04:28:27.089Z,69.58
2019-02-15T04:29:33.422Z,70.72
2019-02-15T04:30:39.496Z,74.90
2019-02-15T04:31:45.750Z,72.78
2019-02-15T04:32:51.906Z,72.55
2019-02-15T04:33:58.066Z,73.40
2019-02-15T04:35:04.070Z,75.12
2019-02-15T04:36:10.108Z,63.78
2019-02-15T04:37:16.412Z,70.78
2019-02-15T04:38:22.550Z,72.40
2019-02-15T04:39:28.688Z,76.90
2019-02-15T04:40:35.115Z,76.97
2019-02-15T04:41:41.339Z,72.92
2019-02-15T04:42:47.580Z,72.15
2019-02-15T04:43:53.805Z,75.57
2019-02-15T04:45:00.097Z,78.05
2019-02-15T04:46:06.624Z,74.67
2019-02-15T04:47:12.685Z,66.45
2019-02-15T04:48:19.068Z,70.80
2019-02-15T04:49:25.301Z,71.90
2019-02-15T04:50:31.445Z,76.07
2019-02-15T04:51:37.657Z,75.30
2019-02-15T04:52:43.742Z,74.87
2019-02-15T04:53:50.088Z,73.87
2019-02-15T04:54:56.355Z,74.00
2019-02-15T04:56:02.420Z,74.85
2019-02-15T04:57:08.641Z,71.55
2019-02-15T04:58:14.802Z,76.90
2019-02-15T04:59:20.705Z,66.77
2019-02-15T05:00:26.786Z,69.85
2019-02-15T05:01:32.948Z,71.37
2019-02-15T05:02:39.146Z,72.95
2019-02-15T05:03:45.379Z,67.42
2019-02-15T05:04:51.486Z,67.70
2019-02-15T05:05:57.648Z,74.25
2019-02-15T05:07:03.750Z,69.87
2019-02-15T05:08:09.811Z,69.05
2019-02-15T05:09:16.007Z,67.42
2019-02-15T05:10:22.136Z,65.90
2019-02-15T05:11:28.310Z,71.10
2019-02-15T05:12:34.356Z,63.60
2019-02-15T05:13:40.598Z,70.40
2019-02-15T05:14:52.988Z,64.60
2019-02-15T05:15:54.744Z,71.67
2019-02-15T05:17:00.906Z,62.10
2019-02-15T05:18:07.048Z,64.85
2019-02-15T05:19:13.251Z,67.10
2019-02-15T05:20:19.542Z,64.22
2019-02-15T05:21:25.816Z,65.42
2019-02-15T05:22:31.973Z,74.20
2019-02-15T05:23:38.245Z,72.37
2019-02-15T05:24:44.344Z,62.48
2019-02-15T05:25:50.430Z,63.60
2019-02-15T05:26:56.497Z,71.62
2019-02-15T05:28:02.527Z,72.62
2019-02-15T05:29:08.757Z,70.12
2019-02-15T05:30:15.100Z,65.50
2019-02-15T05:31:21.208Z,65.37
2019-02-15T05:32:27.214Z,67.90
2019-02-15T05:33:35.588Z,69.07
2019-02-15T05:34:41.207Z,63.38
2019-02-15T05:35:47.466Z,76.92
2019-02-15T05:36:53.669Z,66.07
2019-02-15T05:37:59.889Z,66.12
2019-02-15T05:39:08.132Z,65.12
2019-02-15T05:40:14.284Z,69.85
2019-02-15T05:41:20.490Z,70.50
2019-02-15T05:42:27.001Z,61.83
2019-02-15T05:43:33.071Z,65.50
2019-02-15T05:44:39.504Z,61.60
2019-02-15T05:45:45.541Z,68.07
2019-02-15T05:46:51.686Z,66.40
2019-02-15T05:47:57.808Z,70.90
2019-02-15T05:49:03.800Z,64.87
2019-02-15T05:50:09.950Z,63.38
2019-02-15T05:51:15.985Z,66.55
2019-02-15T05:52:22.134Z,65.85
2019-02-15T05:53:28.437Z,72.75
2019-02-15T05:54:34.310Z,66.60
2019-02-15T05:55:40.659Z,68.95
2019-02-15T05:56:46.836Z,66.05
2019-02-15T05:57:53.176Z,66.42
2019-02-15T05:58:59.343Z,64.35
2019-02-15T06:00:06.256Z,71.45
2019-02-15T06:01:12.712Z,61.37
2019-02-15T06:02:18.705Z,70.90
2019-02-15T06:03:24.859Z,66.97
2019-02-15T06:04:30.917Z,65.10
2019-02-15T06:05:36.978Z,69.47
2019-02-15T06:06:43.016Z,71.77
2019-02-15T06:07:49.068Z,73.37
2019-02-15T06:08:55.295Z,71.70
2019-02-15T06:10:01.374Z,72.15
2019-02-15T06:11:08.401Z,78.83
2019-02-15T06:12:14.784Z,71.67
2019-02-15T06:13:21.027Z,69.00
2019-02-15T06:14:27.335Z,72.10
2019-02-15T06:15:33.485Z,69.12
2019-02-15T06:16:39.677Z,69.20
2019-02-15T06:17:45.969Z,71.67
2019-02-15T06:18:52.287Z,77.53
2019-02-15T06:19:58.531Z,78.42
2019-02-15T06:21:04.520Z,77.35
2019-02-15T06:22:10.754Z,78.55
2019-02-15T06:23:17.017Z,79.17
2019-02-15T06:24:23.250Z,87.75
2019-02-15T06:25:29.408Z,78.30
2019-02-15T06:26:35.560Z,78.75
2019-02-15T06:27:41.901Z,79.45
2019-02-15T06:28:48.084Z,76.90
2019-02-15T06:29:54.265Z,74.90
2019-02-15T06:31:00.369Z,73.62
2019-02-15T06:32:06.514Z,74.95
2019-02-15T06:33:12.605Z,81.70
2019-02-15T06:34:18.725Z,73.02
2019-02-15T06:35:24.942Z,70.42
2019-02-15T06:36:34.929Z,63.87
2019-02-15T06:37:41.203Z,81.82
2019-02-15T06:38:47.332Z,69.10
2019-02-15T06:39:53.673Z,68.62
2019-02-15T06:40:59.634Z,72.37
2019-02-15T06:42:06.168Z,70.62
2019-02-15T06:43:12.212Z,68.05
2019-02-15T06:44:18.376Z,79.10
2019-02-15T06:45:25.561Z,70.00
2019-02-15T06:46:32.004Z,75.80
2019-02-15T06:47:38.063Z,68.25
2019-02-15T06:48:44.207Z,74.47
2019-02-15T06:49:50.152Z,70.60
2019-02-15T06:50:56.359Z,76.42
2019-02-15T06:52:02.407Z,74.12
2019-02-15T06:53:09.925Z,74.32
2019-02-15T06:54:16.555Z,75.37
2019-02-15T06:55:22.640Z,67.42
2019-02-15T06:56:28.722Z,75.32
2019-02-15T06:57:34.937Z,77.08
2019-02-15T06:58:52.652Z,72.30
2019-02-15T07:00:26.765Z,77.25
2019-02-15T07:01:47.869Z,74.62
2019-02-15T07:03:01.989Z,76.53
2019-02-15T07:04:18.099Z,69.17
2019-02-15T07:05:26.082Z,71.20
2019-02-15T07:06:32.579Z,77.15
2019-02-15T07:07:38.725Z,72.58
2019-02-15T07:08:44.864Z,77.40
2019-02-15T07:09:51.224Z,80.83
2019-02-15T07:10:57.451Z,72.90
2019-02-15T07:12:03.600Z,83.27
2019-02-15T07:13:09.766Z,80.15
2019-02-15T07:14:16.028Z,73.60
2019-02-15T07:15:22.326Z,67.42
2019-02-15T07:16:28.432Z,74.82
2019-02-15T07:17:34.284Z,74.17
2019-02-15T07:18:40.497Z,72.42
2019-02-15T07:19:46.750Z,81.60
2019-02-15T07:20:55.994Z,71.20
2019-02-15T07:22:02.056Z,75.95
2019-02-15T07:23:08.317Z,69.20
2019-02-15T07:24:14.595Z,76.17
2019-02-15T07:25:20.622Z,75.97
2019-02-15T07:26:26.934Z,68.02
2019-02-15T07:27:33.188Z,66.95
2019-02-15T07:28:39.145Z,74.82
2019-02-15T07:29:45.298Z,66.45
2019-02-15T07:30:51.347Z,67.40
2019-02-15T07:31:57.412Z,68.80
2019-02-15T07:33:03.576Z,69.25
2019-02-15T07:34:09.641Z,70.20
2019-02-15T07:35:15.712Z,67.30
2019-02-15T07:36:21.719Z,68.05
2019-02-15T07:37:27.767Z,73.52
2019-02-15T07:38:33.839Z,63.00
2019-02-15T07:39:39.931Z,71.33
2019-02-15T07:40:46.122Z,69.42
2019-02-15T07:41:52.357Z,69.97
2019-02-15T07:42:58.119Z,66.02
2019-02-15T07:44:04.335Z,64.20
2019-02-15T07:45:10.596Z,62.93
2019-02-15T07:46:16.777Z,66.67
2019-02-15T07:47:22.909Z,58.73
2019-02-15T07:48:28.698Z,72.55
2019-02-15T07:49:34.878Z,64.12
2019-02-15T07:50:41.047Z,66.17
2019-02-15T07:51:47.201Z,62.50
2019-02-15T07:52:53.544Z,63.63
2019-02-15T07:53:59.783Z,66.55
2019-02-15T07:55:06.601Z,58.48
2019-02-15T07:56:12.536Z,63.33
2019-02-15T07:57:18.838Z,61.63
2019-02-15T07:58:25.036Z,60.83
2019-02-15T07:59:31.139Z,56.58
2019-02-15T08:00:37.301Z,58.60
2019-02-15T08:01:43.641Z,53.92
2019-02-15T08:02:49.843Z,61.00
2019-02-15T08:03:55.985Z,58.33
2019-02-15T08:05:02.142Z,61.25
2019-02-15T08:06:08.301Z,59.83
2019-02-15T08:07:14.526Z,58.10
2019-02-15T08:08:20.661Z,55.63
2019-02-15T08:09:26.398Z,63.33
2019-02-15T08:10:34.179Z,59.05
2019-02-15T08:11:40.365Z,59.03
2019-02-15T08:12:46.726Z,48.23
2019-02-15T08:13:52.766Z,59.70
2019-02-15T08:14:58.846Z,54.70
2019-02-15T08:16:04.955Z,58.20
2019-02-15T08:17:11.112Z,55.95
2019-02-15T08:18:17.224Z,55.15
2019-02-15T08:19:24.326Z,52.13
2019-02-15T08:20:30.606Z,57.23
2019-02-15T08:21:36.705Z,46.00
2019-02-15T08:22:43.031Z,47.73
2019-02-15T08:23:49.436Z,53.13
2019-02-15T08:24:55.637Z,46.95
2019-02-15T08:26:01.919Z,46.88
2019-02-15T08:27:08.112Z,49.18
2019-02-15T08:28:15.350Z,48.68
2019-02-15T08:29:21.720Z,45.92
2019-02-15T08:30:27.896Z,45.43
2019-02-15T08:31:34.050Z,43.65
2019-02-15T08:32:40.218Z,48.17
2019-02-15T08:33:46.231Z,45.70
2019-02-15T08:34:52.146Z,46.65
2019-02-15T08:35:58.322Z,48.58
2019-02-15T08:37:04.500Z,46.95
2019-02-15T08:38:10.687Z,42.98
2019-02-15T08:39:16.999Z,45.10
2019-02-15T08:40:23.247Z,41.60
2019-02-15T08:41:29.325Z,41.55
2019-02-15T08:42:35.634Z,42.55
2019-02-15T08:43:41.641Z,47.48
2019-02-15T08:44:47.934Z,37.65
2019-02-15T08:46:00.537Z,43.10
2019-02-15T08:47:01.702Z,42.43
2019-02-15T08:48:08.974Z,42.60
2019-02-15T08:49:15.159Z,45.67
2019-02-15T08:50:21.285Z,41.98
2019-02-15T08:51:27.675Z,39.75
2019-02-15T08:52:33.896Z,35.73
2019-02-15T08:53:40.663Z,38.20
2019-02-15T08:54:46.974Z,43.55
2019-02-15T08:55:53.044Z,41.02
2019-02-15T08:56:59.509Z,37.67
2019-02-15T08:58:05.758Z,37.17
2019-02-15T08:59:12.486Z,38.92
2019-02-15T09:00:18.341Z,40.10
2019-02-15T09:01:24.445Z,39.30
2019-02-15T09:02:30.625Z,37.48
2019-02-15T09:03:36.875Z,37.60
2019-02-15T09:04:42.889Z,39.38
2019-02-15T09:05:49.019Z,36.45
2019-02-15T09:06:55.240Z,39.75
2019-02-15T09:08:01.314Z,40.12
2019-02-15T09:09:07.802Z,38.42
2019-02-15T09:10:14.235Z,37.93
2019-02-15T09:11:20.396Z,39.90
2019-02-15T09:12:26.850Z,39.78
2019-02-15T09:13:33.088Z,38.02
2019-02-15T09:14:39.235Z,35.55
2019-02-15T09:15:45.493Z,44.30
2019-02-15T09:16:51.548Z,37.23
2019-02-15T09:17:57.596Z,42.20
2019-02-15T09:19:03.751Z,37.23
2019-02-15T09:20:10.802Z,39.18
2019-02-15T09:21:16.957Z,41.48
2019-02-15T09:22:23.344Z,35.70
2019-02-15T09:23:29.608Z,38.02
2019-02-15T09:24:35.742Z,39.78
2019-02-15T09:25:41.964Z,35.98
2019-02-15T09:26:49.247Z,43.08
2019-02-15T09:28:15.533Z,38.13
2019-02-15T09:29:21.756Z,36.85
2019-02-15T09:30:28.012Z,36.68
2019-02-15T09:31:34.311Z,38.70
2019-02-15T09:32:40.784Z,36.17
2019-02-15T09:33:46.960Z,34.45
2019-02-15T09:34:54.056Z,36.05
2019-02-15T09:36:00.399Z,40.92
2019-02-15T09:37:06.745Z,38.30
2019-02-15T09:38:13.008Z,39.88
2019-02-15T09:39:19.308Z,36.35
2019-02-15T09:40:25.390Z,37.42
2019-02-15T09:41:31.765Z,35.08
2019-02-15T09:42:37.935Z,38.65
2019-02-15T09:43:44.056Z,41.40
2019-02-15T09:44:50.206Z,36.58
2019-02-15T09:45:56.284Z,44.03
2019-02-15T09:47:02.468Z,41.28
2019-02-15T09:48:08.569Z,35.60
2019-02-15T09:49:15.800Z,38.67
2019-02-15T09:50:22.064Z,40.23
2019-02-15T09:51:28.652Z,42.50
2019-02-15T09:52:34.867Z,42.38
2019-02-15T09:53:42.176Z,42.20
2019-02-15T09:54:48.528Z,36.38
2019-02-15T09:55:54.801Z,35.48
2019-02-15T09:57:01.052Z,39.95
2019-02-15T09:58:08.391Z,38.15
2019-02-15T09:59:14.599Z,43.15
2019-02-15T10:00:20.871Z,41.40
2019-02-15T10:01:27.174Z,41.10
2019-02-15T10:02:33.275Z,40.88
2019-02-15T10:03:40.494Z,44.10
2019-02-15T10:04:47.145Z,42.67
2019-02-15T10:05:53.365Z,42.20
2019-02-15T10:06:59.417Z,42.75
2019-02-15T10:08:05.585Z,41.02
2019-02-15T10:09:11.836Z,40.78
2019-02-15T10:10:17.968Z,49.63
2019-02-15T10:11:24.168Z,44.00
2019-02-15T10:12:30.182Z,40.98
2019-02-15T10:13:36.268Z,49.15
2019-02-15T10:14:42.775Z,44.83
2019-02-15T10:15:48.826Z,43.83
2019-02-15T10:16:54.860Z,47.98
2019-02-15T10:18:01.163Z,45.17
2019-02-15T10:19:07.322Z,47.48
2019-02-15T10:20:13.725Z,44.88
2019-02-15T10:21:19.887Z,43.65
2019-02-15T10:22:26.026Z,46.98
2019-02-15T10:23:32.154Z,40.45
2019-02-15T10:24:38.044Z,46.37
2019-02-15T10:25:45.394Z,46.25
2019-02-15T10:26:51.644Z,51.92
2019-02-15T10:27:57.948Z,43.98
2019-02-15T10:29:04.145Z,47.78
2019-02-15T10:30:11.281Z,44.83
2019-02-15T10:31:17.502Z,45.25
2019-02-15T10:32:23.777Z,47.45
2019-02-15T10:33:30.033Z,48.42
2019-02-15T10:34:36.475Z,48.08
2019-02-15T10:35:42.708Z,50.03
2019-02-15T10:36:48.806Z,46.25
2019-02-15T10:37:55.147Z,47.85
2019-02-15T10:39:01.518Z,50.83
2019-02-15T10:40:07.884Z,50.88
2019-02-15T10:41:14.088Z,48.68
2019-02-15T10:42:20.248Z,49.03
2019-02-15T10:43:26.418Z,50.33
2019-02-15T10:44:32.627Z,49.73
2019-02-15T10:45:38.781Z,51.40
2019-02-15T10:46:44.885Z,49.50
2019-02-15T10:47:51.162Z,48.52
2019-02-15T10:48:57.238Z,47.60
2019-02-15T10:50:05.092Z,50.95
2019-02-15T10:51:11.165Z,43.35
2019-02-15T10:52:17.265Z,50.75
2019-02-15T10:53:23.514Z,43.87
2019-02-15T10:54:29.768Z,44.30
2019-02-15T10:55:38.026Z,44.67
2019-02-15T10:56:43.808Z,51.15
2019-02-15T10:57:50.077Z,48.73
2019-02-15T10:58:56.244Z,54.38
2019-02-15T11:00:02.508Z,51.10
2019-02-15T11:01:08.549Z,53.30
2019-02-15T11:02:14.780Z,47.17
2019-02-15T11:03:21.401Z,49.03
2019-02-15T11:04:27.519Z,44.60
2019-02-15T11:05:33.535Z,44.18
2019-02-15T11:06:39.643Z,49.03
2019-02-15T11:07:46.541Z,50.20
2019-02-15T11:08:52.714Z,45.43
2019-02-15T11:09:58.971Z,47.43
2019-02-15T11:11:05.230Z,46.77
2019-02-15T11:12:11.406Z,46.60
2019-02-15T11:13:17.773Z,48.85
2019-02-15T11:14:24.150Z,48.75
2019-02-15T11:15:30.064Z,47.75
2019-02-15T11:16:36.303Z,41.55
2019-02-15T11:17:42.354Z,48.17
2019-02-15T11:18:48.656Z,44.00
2019-02-15T11:19:54.858Z,49.65
2019-02-15T11:21:03.055Z,49.90
2019-02-15T11:22:09.364Z,46.95
2019-02-15T11:23:15.622Z,48.10
2019-02-15T11:24:21.874Z,53.40
2019-02-15T11:25:27.963Z,52.20
2019-02-15T11:26:34.096Z,49.90
2019-02-15T11:27:40.077Z,50.12
2019-02-15T11:28:46.468Z,51.65
2019-02-15T11:29:52.697Z,42.23
2019-02-15T11:30:58.897Z,44.13
2019-02-15T11:32:05.283Z,50.80
2019-02-15T11:33:11.617Z,47.75
2019-02-15T11:34:18.037Z,46.42
2019-02-15T11:35:24.130Z,50.03
2019-02-15T11:36:30.186Z,44.60
2019-02-15T11:37:36.476Z,48.80
2019-02-15T11:38:42.507Z,49.10
2019-02-15T11:39:48.739Z,48.08
2019-02-15T11:40:55.039Z,48.52
2019-02-15T11:42:01.337Z,50.05
2019-02-15T11:43:07.626Z,47.83
2019-02-15T11:44:13.738Z,53.95
2019-02-15T11:45:19.945Z,44.67
2019-02-15T11:46:26.048Z,48.92
2019-02-15T11:47:32.307Z,48.38
2019-02-15T11:48:38.526Z,43.58
2019-02-15T11:49:45.003Z,44.93
2019-02-15T11:50:51.322Z,52.15
2019-02-15T11:51:57.582Z,47.75
2019-02-15T11:53:03.810Z,46.37
2019-02-15T11:54:10.022Z,48.45
2019-02-15T11:55:16.465Z,52.13
2019-02-15T11:56:22.670Z,50.48
2019-02-15T11:57:29.905Z,51.58
2019-02-15T11:58:36.086Z,50.30
2019-02-15T11:59:42.285Z,53.90
2019-02-15T12:00:48.501Z,48.75
2019-02-15T12:01:54.576Z,52.15
2019-02-15T12:03:00.774Z,50.50
2019-02-15T12:04:07.034Z,55.35
2019-02-15T12:05:13.197Z,46.80
2019-02-15T12:06:19.261Z,52.38
2019-02-15T12:07:25.554Z,49.08
2019-02-15T12:08:31.648Z,47.43
2019-02-15T12:09:37.785Z,50.28
2019-02-15T12:10:44.022Z,45.60
2019-02-15T12:11:50.417Z,48.42
2019-02-15T12:12:56.467Z,47.33
2019-02-15T12:14:02.585Z,49.27
2019-02-15T12:15:09.045Z,47.45
2019-02-15T12:16:15.305Z,45.52
2019-02-15T12:17:21.588Z,48.80
2019-02-15T12:18:27.664Z,49.13
2019-02-15T12:19:33.666Z,45.98
2019-02-15T12:20:40.011Z,46.68
2019-02-15T12:21:46.395Z,44.90
2019-02-15T12:22:52.694Z,50.43
2019-02-15T12:23:59.010Z,46.73
2019-02-15T12:25:05.250Z,49.05
2019-02-15T12:26:11.491Z,46.40
2019-02-15T12:27:17.918Z,48.38
2019-02-15T12:28:24.196Z,45.78
2019-02-15T12:29:30.540Z,47.83
2019-02-15T12:30:36.781Z,48.30
2019-02-15T12:31:42.711Z,48.10
2019-02-15T12:32:48.889Z,49.77
2019-02-15T12:33:55.118Z,50.63
2019-02-15T12:35:01.385Z,47.17
2019-02-15T12:36:07.745Z,53.23
2019-02-15T12:37:13.840Z,52.62
2019-02-15T12:38:20.178Z,46.77
2019-02-15T12:39:26.492Z,52.10
2019-02-15T12:40:32.832Z,50.25
2019-02-15T12:41:39.117Z,53.78
2019-02-15T12:42:45.457Z,52.27
2019-02-15T12:43:51.585Z,52.53
2019-02-15T12:44:57.898Z,50.15
2019-02-15T12:46:04.074Z,53.48
2019-02-15T12:47:15.076Z,51.48
2019-02-15T12:48:17.964Z,54.05
2019-02-15T12:49:24.307Z,55.48
2019-02-15T12:50:31.488Z,56.45
2019-02-15T12:51:37.650Z,54.90
2019-02-15T12:52:43.899Z,52.73
2019-02-15T12:53:50.073Z,52.80
2019-02-15T12:54:56.349Z,57.80
2019-02-15T12:56:02.556Z,50.98
2019-02-15T12:57:08.665Z,52.62
2019-02-15T12:58:14.994Z,57.05
2019-02-15T12:59:21.283Z,52.50
2019-02-15T13:00:27.487Z,54.70
2019-02-15T13:01:33.607Z,55.38
2019-02-15T13:02:39.947Z,53.95
2019-02-15T13:03:46.226Z,59.42
2019-02-15T13:04:52.400Z,54.15
2019-02-15T13:05:58.606Z,58.10
2019-02-15T13:07:04.812Z,56.25
2019-02-15T13:08:11.133Z,53.83
2019-02-15T13:09:17.632Z,51.77
2019-02-15T13:10:26.260Z,52.60
2019-02-15T13:11:32.636Z,55.98
2019-02-15T13:12:38.901Z,53.83
2019-02-15T13:13:45.186Z,52.75
2019-02-15T13:14:51.423Z,52.48
2019-02-15T13:15:57.822Z,53.60
2019-02-15T13:17:04.108Z,59.35
2019-02-15T13:18:10.350Z,55.28
2019-02-15T13:19:16.550Z,58.33
2019-02-15T13:20:22.802Z,59.05
2019-02-15T13:21:29.016Z,60.90
2019-02-15T13:22:35.223Z,64.03
2019-02-15T13:23:41.353Z,55.65
2019-02-15T13:24:47.516Z,58.85
2019-02-15T13:25:53.642Z,57.00
2019-02-15T13:26:59.752Z,61.18
2019-02-15T13:28:06.288Z,61.13
2019-02-15T13:29:12.665Z,59.98
2019-02-15T13:30:18.974Z,62.73
2019-02-15T13:31:25.381Z,63.98
2019-02-15T13:32:31.736Z,63.30
2019-02-15T13:33:37.962Z,57.93
2019-02-15T13:34:43.945Z,67.20
2019-02-15T13:35:50.113Z,63.68
2019-02-15T13:36:56.957Z,57.30
2019-02-15T13:38:03.344Z,70.17
2019-02-15T13:39:10.957Z,63.45
2019-02-15T13:40:17.163Z,71.72
2019-02-15T13:41:24.779Z,69.07
2019-02-15T13:42:31.163Z,66.50
2019-02-15T13:43:37.457Z,64.92
2019-02-15T13:44:43.802Z,67.15
2019-02-15T13:45:49.984Z,72.85
2019-02-15T13:46:56.137Z,73.30
2019-02-15T13:48:02.357Z,68.87
2019-02-15T13:49:08.449Z,78.10
2019-02-15T13:50:14.832Z,73.92
2019-02-15T13:51:21.125Z,72.55
2019-02-15T13:52:27.396Z,73.05
2019-02-15T13:53:33.570Z,79.53
2019-02-15T13:54:39.768Z,78.02
2019-02-15T13:55:45.967Z,75.30
2019-02-15T13:56:52.413Z,86.30
2019-02-15T13:57:59.062Z,85.57
2019-02-15T13:59:05.372Z,77.17
2019-02-15T14:00:12.324Z,76.77
2019-02-15T14:01:18.591Z,76.95
2019-02-15T14:02:24.857Z,78.35
2019-02-15T14:03:32.790Z,82.40
2019-02-15T14:04:39.252Z,77.47
2019-02-15T14:05:45.415Z,77.95
2019-02-15T14:06:56.098Z,75.22
2019-02-15T14:08:02.935Z,77.15
2019-02-15T14:09:09.886Z,76.90
2019-02-15T14:10:16.161Z,78.95
2019-02-15T14:11:22.317Z,79.25
2019-02-15T14:12:28.671Z,80.70
2019-02-15T14:13:35.012Z,81.02
2019-02-15T14:14:41.334Z,78.62
2019-02-15T14:15:47.507Z,81.65
2019-02-15T14:16:53.763Z,83.03
2019-02-15T14:18:00.059Z,79.77
2019-02-15T14:19:06.126Z,79.80
2019-02-15T14:20:13.648Z,80.53
2019-02-15T14:21:19.879Z,78.20
2019-02-15T14:22:26.126Z,79.53
2019-02-15T14:23:32.304Z,76.07
2019-02-15T14:24:38.914Z,75.50
2019-02-15T14:25:45.237Z,79.62
2019-02-15T14:26:51.880Z,78.30
2019-02-15T14:27:58.066Z,77.72